createdAt,value
2022-12-29T00:00:35.256Z,100377.47
2022-12-29T00:03:42.137Z,100365.72
2022-12-29T00:06:47.584Z,100374.91
2022-12-29T00:09:52.855Z,100371.59
2022-12-29T00:13:15.644Z,100380.84
2022-12-29T00:16:20.946Z,100390.94
2022-12-29T00:19:45.144Z,100378.34
2022-12-29T00:23:08.547Z,100378.34
2022-12-29T00:26:34.673Z,100375.81
2022-12-29T00:29:57.455Z,100379.16
2022-12-29T00:33:20.570Z,100374.13
2022-12-29T00:36:30.025Z,100368.25
2022-12-29T00:39:54.655Z,100369.09
2022-12-29T00:43:17.103Z,100366.59
2022-12-29T00:46:22.815Z,100359.84
2022-12-29T00:49:36.732Z,100357.31
2022-12-29T00:52:44.480Z,100360.72
2022-12-29T00:55:49.463Z,100353.16
2022-12-29T00:58:54.713Z,100354.00
2022-12-29T01:02:00.495Z,100354.00
2022-12-29T01:05:07.878Z,100356.53
2022-12-29T01:08:15.496Z,100348.97
2022-12-29T01:11:19.383Z,100346.44
2022-12-29T01:14:25.109Z,100346.44
2022-12-29T01:17:30.275Z,100346.44
2022-12-29T01:20:35.534Z,100348.13
2022-12-29T01:23:46.490Z,100338.88
2022-12-29T01:26:52.855Z,100338.03
2022-12-29T01:29:58.407Z,100341.41
2022-12-29T01:33:03.620Z,100341.41
2022-12-29T01:36:12.608Z,100335.50
2022-12-29T01:39:19.587Z,100324.59
2022-12-29T01:42:26.927Z,100318.72
2022-12-29T01:45:32.343Z,100318.72
2022-12-29T01:48:37.670Z,100304.44
2022-12-29T01:51:48.115Z,100305.25
2022-12-29T01:54:56.436Z,100306.09
2022-12-29T01:58:03.737Z,100306.94
2022-12-29T02:01:10.262Z,100311.16
2022-12-29T02:04:16.067Z,100287.63
2022-12-29T02:07:25.423Z,100294.34
2022-12-29T02:10:34.347Z,100294.34
2022-12-29T02:13:39.750Z,100296.81
2022-12-29T02:16:57.242Z,100284.25
2022-12-29T02:20:44.877Z,100276.69
2022-12-29T02:24:37.826Z,100265.78
2022-12-29T02:28:02.561Z,100260.81
2022-12-29T02:31:16.015Z,100271.72
2022-12-29T02:34:28.040Z,100257.44
2022-12-29T02:37:37.804Z,100253.16
2022-12-29T02:40:48.640Z,100250.59
2022-12-29T02:43:59.547Z,100252.25
2022-12-29T02:47:12.293Z,100255.63
2022-12-29T02:50:21.614Z,100249.66
2022-12-29T02:53:41.196Z,100246.25
2022-12-29T02:56:46.663Z,100245.41
2022-12-29T02:59:55.566Z,100240.38
2022-12-29T03:03:21.303Z,100231.91
2022-12-29T03:06:35.884Z,100227.69
2022-12-29T03:09:49.902Z,100218.41
2022-12-29T03:13:16.861Z,100235.16
2022-12-29T03:16:27.092Z,100240.94
2022-12-29T03:19:37.291Z,100229.13
2022-12-29T03:22:45.793Z,100226.72
2022-12-29T03:25:58.116Z,100225.03
2022-12-29T03:29:04.192Z,100217.38
2022-12-29T03:32:10.900Z,100203.88
2022-12-29T03:35:21.586Z,100203.94
2022-12-29T03:38:30.278Z,100199.78
2022-12-29T03:41:36.522Z,100214.06
2022-12-29T03:44:43.800Z,100210.75
2022-12-29T03:47:51.329Z,100190.38
2022-12-29T03:50:58.775Z,100192.19
2022-12-29T03:54:04.703Z,100196.41
2022-12-29T03:57:10.509Z,100181.19
2022-12-29T04:00:44.897Z,100174.56
2022-12-29T04:03:50.839Z,100175.28
2022-12-29T04:06:57.804Z,100170.19
2022-12-29T04:10:02.998Z,100159.19
2022-12-29T04:13:11.566Z,100151.75
2022-12-29T04:16:18.099Z,100146.47
2022-12-29T04:19:23.735Z,100146.53
2022-12-29T04:22:30.543Z,100139.78
2022-12-29T04:25:38.986Z,100139.72
2022-12-29T04:28:47.320Z,100131.41
2022-12-29T04:32:11.130Z,100131.31
2022-12-29T04:35:22.222Z,100129.69
2022-12-29T04:38:29.783Z,100119.47
2022-12-29T04:41:40.518Z,100122.13
2022-12-29T04:44:51.867Z,100117.00
2022-12-29T04:48:25.934Z,100116.03
2022-12-29T04:51:51.918Z,100116.00
2022-12-29T04:54:59.406Z,100122.63
2022-12-29T04:58:04.989Z,100118.53
2022-12-29T05:01:14.653Z,100118.41
2022-12-29T05:04:20.276Z,100109.16
2022-12-29T05:07:26.132Z,100102.19
2022-12-29T05:10:36.887Z,100098.16
2022-12-29T05:13:48.636Z,100081.38
2022-12-29T05:16:56.042Z,100088.94
2022-12-29T05:20:07.018Z,100090.47
2022-12-29T05:23:14.891Z,100093.72
2022-12-29T05:26:22.513Z,100085.41
2022-12-29T05:29:53.600Z,100087.91
2022-12-29T05:32:59.447Z,100077.69
2022-12-29T05:36:07.900Z,100070.06
2022-12-29T05:39:15.370Z,100088.88
2022-12-29T05:42:26.198Z,100086.19
2022-12-29T05:45:52.303Z,100075.19
2022-12-29T05:49:13.933Z,100073.38
2022-12-29T05:52:42.551Z,100063.25
2022-12-29T05:55:49.297Z,100058.19
2022-12-29T05:58:57.238Z,100053.13
2022-12-29T06:02:03.965Z,100048.16
2022-12-29T06:05:11.356Z,100050.63
2022-12-29T06:08:18.986Z,100052.22
2022-12-29T06:11:24.330Z,100038.06
2022-12-29T06:14:36.089Z,100034.00
2022-12-29T06:17:43.086Z,100032.88
2022-12-29T06:20:48.842Z,100015.97
2022-12-29T06:23:56.577Z,100027.78
2022-12-29T06:27:02.154Z,100022.00
2022-12-29T06:30:13.324Z,100012.56
2022-12-29T06:33:22.319Z,100010.69
2022-12-29T06:36:29.491Z,100009.97
2022-12-29T06:39:37.068Z,99996.59
2022-12-29T06:42:45.865Z,99997.31
2022-12-29T06:46:16.096Z,99997.22
2022-12-29T06:49:22.592Z,100001.44
2022-12-29T06:52:29.541Z,100005.66
2022-12-29T06:55:35.721Z,100007.41
2022-12-29T06:58:42.309Z,100004.06
2022-12-29T07:01:52.520Z,100011.50
2022-12-29T07:04:58.681Z,100008.19
2022-12-29T07:08:09.338Z,100001.28
2022-12-29T07:11:14.961Z,100007.09
2022-12-29T07:14:20.439Z,99998.66
2022-12-29T07:17:27.895Z,99976.81
2022-12-29T07:20:33.032Z,99972.47
2022-12-29T07:23:38.252Z,99970.84
2022-12-29T07:26:43.411Z,99977.81
2022-12-29T07:29:48.938Z,99970.13
2022-12-29T07:32:56.074Z,99959.03
2022-12-29T07:36:01.891Z,99961.03
2022-12-29T07:39:11.180Z,99951.34
2022-12-29T07:42:16.808Z,99943.09
2022-12-29T07:45:29.349Z,99939.66
2022-12-29T07:48:59.788Z,99944.59
2022-12-29T07:52:04.957Z,99938.84
2022-12-29T07:55:12.843Z,99930.50
2022-12-29T07:58:17.920Z,99936.31
2022-12-29T08:01:24.777Z,99937.16
2022-12-29T08:04:31.439Z,99927.78
2022-12-29T08:07:36.620Z,99923.75
2022-12-29T08:10:41.929Z,99916.00
2022-12-29T08:13:47.378Z,99890.75
2022-12-29T08:16:52.437Z,99896.56
2022-12-29T08:19:59.005Z,99890.66
2022-12-29T08:23:04.329Z,99883.88
2022-12-29T08:26:09.188Z,99884.72
2022-12-29T08:29:16.452Z,99890.66
2022-12-29T08:32:21.701Z,99888.94
2022-12-29T08:35:28.409Z,99895.66
2022-12-29T08:38:33.423Z,99894.97
2022-12-29T08:41:38.298Z,99893.06
2022-12-29T08:44:43.544Z,99893.19
2022-12-29T08:47:48.909Z,99893.91
2022-12-29T08:50:56.123Z,99883.00
2022-12-29T08:54:01.801Z,99882.88
2022-12-29T08:57:07.020Z,99877.06
2022-12-29T09:00:22.093Z,99873.81
2022-12-29T09:06:54.166Z,99858.28
2022-12-29T09:09:59.564Z,99853.25
2022-12-29T09:13:04.498Z,99840.56
2022-12-29T09:16:09.995Z,99816.75
2022-12-29T09:19:15.502Z,99827.81
2022-12-29T09:22:21.855Z,99821.03
2022-12-29T09:25:27.081Z,99812.56
2022-12-29T09:28:32.201Z,99803.16
2022-12-29T09:31:37.475Z,99815.75
2022-12-29T09:34:42.669Z,99804.69
2022-12-29T09:37:49.706Z,99802.13
2022-12-29T09:40:57.960Z,99782.09
2022-12-29T09:44:09.372Z,99789.53
2022-12-29T09:47:17.114Z,99783.34
2022-12-29T09:50:26.796Z,99773.28
2022-12-29T09:53:38.816Z,99763.75
2022-12-29T09:56:44.076Z,99751.31
2022-12-29T09:59:50.455Z,99749.44
2022-12-29T10:02:59.034Z,99738.66
2022-12-29T10:06:09.481Z,99737.56
2022-12-29T10:09:19.837Z,99737.38
2022-12-29T10:12:29.715Z,99732.25
2022-12-29T10:15:47.856Z,99725.53
2022-12-29T10:19:16.924Z,99724.84
2022-12-29T10:22:30.069Z,99720.69
2022-12-29T10:25:40.502Z,99714.81
2022-12-29T10:28:47.651Z,99714.44
2022-12-29T10:31:57.409Z,99702.50
2022-12-29T10:35:07.941Z,99694.22
2022-12-29T10:38:18.305Z,99687.47
2022-12-29T10:41:30.079Z,99684.88
2022-12-29T10:44:35.818Z,99663.69
2022-12-29T10:47:49.704Z,99658.56
2022-12-29T10:51:02.046Z,99661.25
2022-12-29T10:54:11.474Z,99650.13
2022-12-29T10:57:27.157Z,99645.19
2022-12-29T11:00:32.330Z,99638.63
2022-12-29T11:03:51.016Z,99628.66
2022-12-29T11:06:56.284Z,99627.09
2022-12-29T11:10:20.189Z,99619.34
2022-12-29T11:13:36.556Z,99627.66
2022-12-29T11:16:46.220Z,99610.91
2022-12-29T11:19:51.692Z,99604.69
2022-12-29T11:22:56.952Z,99601.28
2022-12-29T11:26:18.268Z,99610.84
2022-12-29T11:29:32.149Z,99589.56
2022-12-29T11:32:37.393Z,99598.75
2022-12-29T11:35:44.641Z,99594.56
2022-12-29T11:38:52.302Z,99583.47
2022-12-29T11:41:58.511Z,99572.06
2022-12-29T11:45:11.093Z,99565.00
2022-12-29T11:48:21.038Z,99566.84
2022-12-29T11:51:27.770Z,99554.66
2022-12-29T11:54:36.168Z,99542.09
2022-12-29T11:57:44.813Z,99539.59
2022-12-29T12:00:53.644Z,99531.88
2022-12-29T12:04:03.963Z,99525.19
2022-12-29T12:07:16.269Z,99516.78
2022-12-29T12:10:27.478Z,99505.94
2022-12-29T12:13:36.140Z,99513.41
2022-12-29T12:16:45.899Z,99490.50
2022-12-29T12:19:56.038Z,99504.91
2022-12-29T12:23:09.626Z,99488.06
2022-12-29T12:26:16.221Z,99483.75
2022-12-29T12:29:27.322Z,99488.31
2022-12-29T12:32:44.259Z,99485.53
2022-12-29T12:36:00.803Z,99479.63
2022-12-29T12:39:13.351Z,99487.16
2022-12-29T12:42:28.500Z,99487.22
2022-12-29T12:45:43.917Z,99476.19
2022-12-29T12:49:14.377Z,99490.16
2022-12-29T12:52:28.652Z,99486.31
2022-12-29T12:55:58.874Z,99484.38
2022-12-29T12:59:10.079Z,99481.31
2022-12-29T13:02:31.015Z,99473.81
2022-12-29T13:05:45.166Z,99462.56
2022-12-29T13:09:20.125Z,99456.59
2022-12-29T13:12:33.924Z,99456.38
2022-12-29T13:15:44.088Z,99442.84
2022-12-29T13:18:54.826Z,99455.88
2022-12-29T13:22:08.205Z,99440.22
2022-12-29T13:25:30.310Z,99446.38
2022-12-29T13:28:41.191Z,99438.53
2022-12-29T13:31:52.129Z,99437.03
2022-12-29T13:35:11.598Z,99421.34
2022-12-29T13:38:22.269Z,99418.22
2022-12-29T13:41:31.934Z,99415.63
2022-12-29T13:44:39.826Z,99416.28
2022-12-29T13:47:48.752Z,99407.41
2022-12-29T13:50:57.487Z,99407.91
2022-12-29T13:54:13.687Z,99412.88
2022-12-29T13:57:28.657Z,99414.59
2022-12-29T14:00:41.037Z,99404.13
2022-12-29T14:03:52.192Z,99404.00
2022-12-29T14:07:05.656Z,99400.72
2022-12-29T14:10:30.268Z,99395.34
2022-12-29T14:13:40.292Z,99399.41
2022-12-29T14:16:46.959Z,99381.28
2022-12-29T14:19:55.884Z,99389.59
2022-12-29T14:23:03.382Z,99384.63
2022-12-29T14:26:18.627Z,99372.78
2022-12-29T14:29:46.387Z,99369.19
2022-12-29T14:33:05.062Z,99363.44
2022-12-29T14:36:23.579Z,99369.28
2022-12-29T14:39:37.602Z,99367.53
2022-12-29T14:42:45.321Z,99373.34
2022-12-29T14:46:00.516Z,99367.13
2022-12-29T14:49:05.866Z,99368.81
2022-12-29T14:52:20.123Z,99370.13
2022-12-29T14:55:41.676Z,99360.97
2022-12-29T14:58:54.409Z,99372.69
2022-12-29T15:01:59.909Z,99371.63
2022-12-29T15:05:05.954Z,99373.81
2022-12-29T15:08:16.117Z,99365.44
2022-12-29T15:11:23.005Z,99363.06
2022-12-29T15:14:35.289Z,99365.09
2022-12-29T15:17:40.581Z,99362.94
2022-12-29T15:20:46.233Z,99356.03
2022-12-29T15:23:51.847Z,99354.53
2022-12-29T15:26:57.673Z,99351.38
2022-12-29T15:30:13.831Z,99349.00
2022-12-29T15:33:23.400Z,99346.97
2022-12-29T15:36:30.836Z,99346.69
2022-12-29T15:39:36.571Z,99337.78
2022-12-29T15:43:09.297Z,99335.22
2022-12-29T15:46:16.306Z,99336.88
2022-12-29T15:49:25.035Z,99341.47
2022-12-29T15:52:34.249Z,99344.84
2022-12-29T15:55:40.388Z,99331.31
2022-12-29T15:58:48.700Z,99323.00
2022-12-29T16:01:55.646Z,99333.03
2022-12-29T16:05:17.346Z,99340.28
2022-12-29T16:08:34.844Z,99332.06
2022-12-29T16:11:42.510Z,99335.69
2022-12-29T16:14:49.594Z,99335.13
2022-12-29T16:17:57.015Z,99337.72
2022-12-29T16:21:02.242Z,99333.38
2022-12-29T16:24:09.976Z,99335.13
2022-12-29T16:27:21.565Z,99337.88
2022-12-29T16:30:33.478Z,99337.53
2022-12-29T16:33:47.350Z,99332.66
2022-12-29T16:36:57.688Z,99339.59
2022-12-29T16:40:28.674Z,99340.84
2022-12-29T16:43:35.966Z,99330.59
2022-12-29T16:46:46.149Z,99336.78
2022-12-29T16:49:54.872Z,99338.22
2022-12-29T16:53:00.148Z,99340.53
2022-12-29T16:56:10.602Z,99345.06
2022-12-29T16:59:27.763Z,99343.31
2022-12-29T17:02:34.681Z,99332.59
2022-12-29T17:05:41.744Z,99335.34
2022-12-29T17:08:47.666Z,99331.75
2022-12-29T17:12:01.642Z,99329.53
2022-12-29T17:15:17.454Z,99342.09
2022-12-29T17:18:22.884Z,99334.25
2022-12-29T17:21:29.427Z,99330.47
2022-12-29T17:24:35.265Z,99335.59
2022-12-29T17:27:45.043Z,99339.94
2022-12-29T17:30:50.736Z,99333.59
2022-12-29T17:33:57.409Z,99334.75
2022-12-29T17:37:04.341Z,99333.16
2022-12-29T17:40:13.918Z,99335.19
2022-12-29T17:43:20.345Z,99345.50
2022-12-29T17:46:25.707Z,99344.47
2022-12-29T17:49:31.334Z,99335.69
2022-12-29T17:52:38.054Z,99339.59
2022-12-29T17:55:43.956Z,99342.69
2022-12-29T17:58:50.847Z,99336.38
2022-12-29T18:01:57.022Z,99345.69
2022-12-29T18:05:05.935Z,99347.03
2022-12-29T18:08:14.415Z,99347.53
2022-12-29T18:11:27.008Z,99355.44
2022-12-29T18:14:32.543Z,99351.44
2022-12-29T18:17:38.126Z,99366.13
2022-12-29T18:20:45.595Z,99361.09
2022-12-29T18:23:52.695Z,99354.28
2022-12-29T18:26:57.761Z,99354.06
2022-12-29T18:30:02.939Z,99343.28
2022-12-29T18:33:14.140Z,99356.81
2022-12-29T18:36:23.627Z,99353.69
2022-12-29T18:39:31.391Z,99361.47
2022-12-29T18:42:36.839Z,99347.47
2022-12-29T18:45:42.718Z,99358.13
2022-12-29T18:48:47.871Z,99363.13
2022-12-29T18:51:53.777Z,99372.13
2022-12-29T18:55:00.653Z,99371.72
2022-12-29T18:58:06.305Z,99381.56
2022-12-29T19:01:21.937Z,99380.13
2022-12-29T19:04:27.947Z,99381.06
2022-12-29T19:07:33.846Z,99375.19
2022-12-29T19:10:43.139Z,99380.81
2022-12-29T19:13:51.703Z,99378.31
2022-12-29T19:16:57.337Z,99372.94
2022-12-29T19:20:03.747Z,99385.00
2022-12-29T19:23:11.020Z,99375.56
2022-12-29T19:26:29.242Z,99377.34
2022-12-29T19:29:34.392Z,99389.00
2022-12-29T19:32:39.841Z,99384.69
2022-12-29T19:35:45.525Z,99383.66
2022-12-29T19:38:50.960Z,99393.13
2022-12-29T19:42:03.498Z,99395.66
2022-12-29T19:45:11.166Z,99383.75
2022-12-29T19:48:18.409Z,99385.63
2022-12-29T19:51:24.004Z,99391.44
2022-12-29T19:54:28.855Z,99396.47
2022-12-29T19:57:36.037Z,99388.47
2022-12-29T20:00:41.377Z,99399.25
2022-12-29T20:03:46.729Z,99401.47
2022-12-29T20:06:51.927Z,99390.72
2022-12-29T20:09:59.081Z,99395.50
2022-12-29T20:13:06.380Z,99399.47
2022-12-29T20:16:15.656Z,99390.22
2022-12-29T20:19:21.004Z,99403.97
2022-12-29T20:22:26.565Z,99406.03
2022-12-29T20:25:48.634Z,99405.41
2022-12-29T20:28:57.572Z,99410.38
2022-12-29T20:32:03.106Z,99407.38
2022-12-29T20:35:09.396Z,99400.44
2022-12-29T20:38:16.134Z,99396.09
2022-12-29T20:41:22.947Z,99398.41
2022-12-29T20:44:32.728Z,99404.84
2022-12-29T20:47:37.813Z,99394.44
2022-12-29T20:50:43.304Z,99392.34
2022-12-29T20:53:48.877Z,99395.59
2022-12-29T20:56:54.634Z,99399.06
2022-12-29T21:00:01.106Z,99397.56
2022-12-29T21:03:07.143Z,99394.81
2022-12-29T21:06:13.021Z,99399.06
2022-12-29T21:09:18.162Z,99400.56
2022-12-29T21:12:23.309Z,99407.16
2022-12-29T21:15:30.780Z,99409.94
2022-12-29T21:18:36.228Z,99404.22
2022-12-29T21:21:41.353Z,99415.44
2022-12-29T21:24:46.559Z,99422.50
2022-12-29T21:27:51.911Z,99423.44
2022-12-29T21:30:58.423Z,99427.94
2022-12-29T21:34:05.053Z,99420.53
2022-12-29T21:37:10.269Z,99411.94
2022-12-29T21:40:15.534Z,99414.88
2022-12-29T21:43:20.691Z,99411.41
2022-12-29T21:46:26.250Z,99429.84
2022-12-29T21:49:31.398Z,99420.69
2022-12-29T21:52:36.672Z,99433.78
2022-12-29T21:55:41.866Z,99428.16
2022-12-29T21:59:05.990Z,99432.63
2022-12-29T22:02:37.436Z,99438.09
2022-12-29T22:06:02.447Z,99426.16
2022-12-29T22:09:25.142Z,99423.56
2022-12-29T22:12:49.017Z,99421.44
2022-12-29T22:15:54.258Z,99426.22
2022-12-29T22:19:00.870Z,99425.03
2022-12-29T22:22:05.984Z,99435.47
2022-12-29T22:25:11.652Z,99434.00
2022-12-29T22:28:17.145Z,99444.50
2022-12-29T22:31:27.575Z,99441.19
2022-12-29T22:34:34.831Z,99445.88
2022-12-29T22:37:43.456Z,99449.63
2022-12-29T22:40:48.620Z,99451.72
2022-12-29T22:43:54.009Z,99458.03
2022-12-29T22:46:59.145Z,99462.03
2022-12-29T22:50:06.454Z,99458.81
2022-12-29T22:53:11.982Z,99465.19
2022-12-29T22:56:17.218Z,99456.75
2022-12-29T22:59:22.454Z,99458.03
2022-12-29T23:02:28.268Z,99455.81
2022-12-29T23:05:35.101Z,99462.88
2022-12-29T23:08:41.124Z,99476.09
2022-12-29T23:11:46.862Z,99475.03
2022-12-29T23:14:52.026Z,99479.28
2022-12-29T23:17:57.209Z,99475.75
2022-12-29T23:21:03.558Z,99476.91
2022-12-29T23:24:10.316Z,99471.00
2022-12-29T23:27:15.470Z,99472.94
2022-12-29T23:30:21.291Z,99469.34
2022-12-29T23:33:26.527Z,99476.72
2022-12-29T23:36:33.466Z,99490.31
2022-12-29T23:39:38.586Z,99490.00
2022-12-29T23:42:43.854Z,99477.06
2022-12-29T23:45:51.193Z,99492.59
2022-12-29T23:48:57.036Z,99480.75
2022-12-29T23:52:03.780Z,99485.31
2022-12-29T23:55:10.925Z,99483.09
2022-12-29T23:58:16.091Z,99478.47
